Kingsley Lake, Florida
Current Conditions -  °F | °C
As of 9:15 AM on Saturday 22 Nov 2014 (Local Time) from K42J Reporting Station
Few Clouds Few Clouds  
Wind Chill: 66°   Ceiling: Unl
Heat Index: 66°   Visibility: 7mi
Dew Point: 61°   Wind: 6mph
Humidity: 83%   Direction: 60°ENE
Pressure: 30.33"   Gusts: NA
Location:  29.9637°N, 82.0893°W
Report Text: K42J 221415Z AUTO 06005KT 7SM FEW090 19/16 A3033 RMK AO1 TSNO
Loading
Personal Weather Stations






























Interactive Weather Map New forecast layout! Learn more

10-Day Weather Forecast

Advertisements
Track Severe Weather on mobile